createdAt,value
2018-08-24T00:01:19.959Z,3.80
2018-08-24T00:03:48.183Z,4.93
2018-08-24T00:06:16.440Z,3.93
2018-08-24T00:08:44.659Z,4.60
2018-08-24T00:11:12.858Z,3.73
2018-08-24T00:13:41.032Z,4.30
2018-08-24T00:16:09.252Z,4.87
2018-08-24T00:18:37.496Z,3.67
2018-08-24T00:21:05.677Z,4.47
2018-08-24T00:23:33.864Z,4.23
2018-08-24T00:26:02.136Z,4.90
2018-08-24T00:28:30.315Z,4.80
2018-08-24T00:30:58.495Z,4.23
2018-08-24T00:33:26.686Z,5.00
2018-08-24T00:35:55.059Z,4.60
2018-08-24T00:38:23.236Z,4.93
2018-08-24T00:40:55.843Z,4.83
2018-08-24T00:43:24.346Z,6.63
2018-08-24T00:45:52.668Z,5.50
2018-08-24T00:48:20.870Z,5.70
2018-08-24T00:50:49.156Z,7.10
2018-08-24T00:53:17.408Z,6.70
2018-08-24T00:55:45.654Z,6.57
2018-08-24T00:58:13.843Z,7.40
2018-08-24T01:00:43.396Z,6.10
2018-08-24T01:03:13.211Z,7.57
2018-08-24T01:05:41.475Z,7.00
2018-08-24T01:08:09.760Z,8.67
2018-08-24T01:10:38.266Z,8.40
2018-08-24T01:13:11.796Z,7.60
2018-08-24T01:15:52.126Z,8.77
2018-08-24T01:18:21.720Z,7.47
2018-08-24T01:20:49.956Z,8.77
2018-08-24T01:23:19.700Z,8.73
2018-08-24T01:25:48.204Z,9.03
2018-08-24T01:28:17.076Z,8.03
2018-08-24T01:30:45.268Z,9.17
2018-08-24T01:33:13.506Z,8.43
2018-08-24T01:35:41.759Z,9.20
2018-08-24T01:38:10.263Z,9.77
2018-08-24T01:40:38.548Z,9.20
2018-08-24T01:43:07.020Z,10.07
2018-08-24T01:45:35.265Z,8.50
2018-08-24T01:48:03.440Z,9.17
2018-08-24T01:50:31.638Z,9.70
2018-08-24T01:52:59.838Z,8.83
2018-08-24T01:55:28.155Z,8.03
2018-08-24T01:57:56.988Z,9.97
2018-08-24T02:00:25.226Z,8.60
2018-08-24T02:02:53.416Z,8.40
2018-08-24T02:05:21.691Z,9.83
2018-08-24T02:07:49.912Z,9.00
2018-08-24T02:10:23.487Z,10.43
2018-08-24T02:12:57.097Z,10.00
2018-08-24T02:15:25.429Z,10.50
2018-08-24T02:17:58.993Z,10.37
2018-08-24T02:20:32.621Z,12.50
2018-08-24T02:23:04.928Z,12.50
2018-08-24T02:25:33.145Z,12.80
2018-08-24T02:28:01.352Z,12.03
2018-08-24T02:30:29.549Z,12.20
2018-08-24T02:32:57.795Z,13.17
2018-08-24T02:35:26.040Z,12.40
2018-08-24T02:37:54.230Z,12.03
2018-08-24T02:40:22.432Z,13.23
2018-08-24T02:42:50.608Z,10.27
2018-08-24T02:45:18.880Z,10.67
2018-08-24T02:47:47.112Z,9.53
2018-08-24T02:50:15.296Z,10.50
2018-08-24T02:52:43.495Z,9.80
2018-08-24T02:55:11.803Z,9.20
2018-08-24T02:57:40.026Z,7.90
2018-08-24T03:00:08.276Z,6.70
2018-08-24T03:02:36.444Z,6.80
2018-08-24T03:05:04.888Z,6.60
2018-08-24T03:07:33.071Z,6.40
2018-08-24T03:10:01.322Z,5.40
2018-08-24T03:12:29.519Z,6.47
2018-08-24T03:14:57.764Z,6.60
2018-08-24T03:17:31.511Z,5.40
2018-08-24T03:19:59.711Z,5.77
2018-08-24T03:22:27.987Z,6.00
2018-08-24T03:24:56.207Z,5.13
2018-08-24T03:27:24.472Z,6.70
2018-08-24T03:29:52.708Z,5.77
2018-08-24T03:32:20.912Z,5.83
2018-08-24T03:34:49.144Z,4.27
2018-08-24T03:37:17.335Z,4.50
2018-08-24T03:39:45.523Z,4.53
2018-08-24T03:42:13.714Z,4.07
2018-08-24T03:44:41.946Z,3.40
2018-08-24T03:47:10.239Z,3.60
2018-08-24T03:49:38.440Z,2.77
2018-08-24T03:52:06.610Z,3.47
2018-08-24T03:54:34.776Z,2.60
2018-08-24T03:57:02.999Z,2.40
2018-08-24T03:59:31.181Z,3.17
2018-08-24T04:01:59.373Z,2.97
2018-08-24T04:04:33.970Z,3.07
2018-08-24T04:07:02.874Z,2.90
2018-08-24T04:09:31.076Z,2.70
2018-08-24T04:11:59.387Z,2.33
2018-08-24T04:14:27.582Z,2.40
2018-08-24T04:17:01.322Z,2.47
2018-08-24T04:19:29.669Z,2.60
2018-08-24T04:21:58.372Z,3.20
2018-08-24T04:24:26.555Z,3.00
2018-08-24T04:26:55.529Z,2.93
2018-08-24T04:29:24.208Z,2.70
2018-08-24T04:31:52.408Z,2.13
2018-08-24T04:34:20.600Z,4.17
2018-08-24T04:36:48.867Z,3.00
2018-08-24T04:39:17.178Z,3.13
2018-08-24T04:41:45.363Z,3.43
2018-08-24T04:44:13.765Z,3.93
2018-08-24T04:46:41.951Z,3.23
2018-08-24T04:49:10.129Z,3.07
2018-08-24T04:51:38.307Z,4.00
2018-08-24T04:54:06.488Z,3.10
2018-08-24T04:56:34.671Z,3.00
2018-08-24T04:59:02.875Z,3.87
2018-08-24T05:01:31.056Z,3.47
2018-08-24T05:04:00.084Z,3.07
2018-08-24T05:06:28.529Z,3.20
2018-08-24T05:08:56.705Z,3.83
2018-08-24T05:11:24.919Z,3.07
2018-08-24T05:13:53.120Z,3.13
2018-08-24T05:16:21.328Z,4.37
2018-08-24T05:18:49.599Z,3.00
2018-08-24T05:21:18.353Z,4.40
2018-08-24T05:23:46.493Z,3.23
2018-08-24T05:26:14.687Z,3.20
2018-08-24T05:28:42.872Z,3.23
2018-08-24T05:31:11.071Z,2.90
2018-08-24T05:33:39.260Z,2.90
2018-08-24T05:36:07.477Z,3.03
2018-08-24T05:38:35.655Z,2.23
2018-08-24T05:41:03.844Z,2.17
2018-08-24T05:43:32.053Z,2.93
2018-08-24T05:46:00.239Z,3.10
2018-08-24T05:48:28.487Z,2.50
2018-08-24T05:50:56.680Z,3.00
2018-08-24T05:53:24.861Z,2.90
2018-08-24T05:55:53.078Z,1.77
2018-08-24T05:58:21.296Z,3.37
2018-08-24T06:00:49.581Z,2.43
2018-08-24T06:03:17.777Z,3.20
2018-08-24T06:05:51.536Z,1.87
2018-08-24T06:08:19.699Z,3.10
2018-08-24T06:10:47.963Z,2.60
2018-08-24T06:13:18.288Z,2.23
2018-08-24T06:15:47.893Z,2.40
2018-08-24T06:18:16.067Z,5.30
2018-08-24T06:20:44.277Z,2.23
2018-08-24T06:23:12.518Z,2.30
2018-08-24T06:25:40.732Z,1.70
2018-08-24T06:28:08.937Z,3.50
2018-08-24T06:30:37.115Z,1.50
2018-08-24T06:33:05.451Z,2.23
2018-08-24T06:35:33.662Z,2.80
2018-08-24T06:38:01.900Z,2.53
2018-08-24T06:40:30.207Z,2.90
2018-08-24T06:42:58.420Z,2.00
2018-08-24T06:45:26.668Z,3.33
2018-08-24T06:47:54.847Z,2.13
2018-08-24T06:50:23.075Z,2.80
2018-08-24T06:52:51.303Z,2.77
2018-08-24T06:55:19.516Z,2.20
2018-08-24T06:57:47.752Z,1.83
2018-08-24T07:00:20.185Z,3.57
2018-08-24T07:02:49.426Z,2.07
2018-08-24T07:05:17.699Z,2.03
2018-08-24T07:07:45.909Z,2.10
2018-08-24T07:10:14.076Z,2.53
2018-08-24T07:12:42.293Z,2.53
2018-08-24T07:15:10.472Z,1.93
2018-08-24T07:17:44.068Z,1.87
2018-08-24T07:20:12.265Z,2.20
2018-08-24T07:22:40.522Z,1.87
2018-08-24T07:25:08.764Z,2.70
2018-08-24T07:27:36.927Z,1.40
2018-08-24T07:30:08.058Z,1.83
2018-08-24T07:32:36.245Z,1.87
2018-08-24T07:35:04.431Z,2.10
2018-08-24T07:37:32.616Z,2.47
2018-08-24T07:40:00.923Z,1.70
2018-08-24T07:42:29.105Z,2.17
2018-08-24T07:44:57.304Z,2.13
2018-08-24T07:47:25.492Z,2.00
2018-08-24T07:49:53.771Z,1.90
2018-08-24T07:52:21.944Z,3.00
2018-08-24T07:54:50.127Z,1.60
2018-08-24T07:57:18.329Z,2.70
2018-08-24T07:59:46.517Z,1.97
2018-08-24T08:02:14.716Z,2.80
2018-08-24T08:04:42.905Z,2.13
2018-08-24T08:07:11.315Z,2.00
2018-08-24T08:09:39.595Z,2.03
2018-08-24T08:12:07.790Z,2.20
2018-08-24T08:14:35.981Z,2.63
2018-08-24T08:17:04.239Z,2.10
2018-08-24T08:19:32.688Z,1.90
2018-08-24T08:22:01.392Z,1.50
2018-08-24T08:24:29.743Z,2.00
2018-08-24T08:26:57.875Z,1.80
2018-08-24T08:29:31.458Z,1.97
2018-08-24T08:31:59.685Z,2.60
2018-08-24T08:34:27.902Z,2.00
2018-08-24T08:36:56.102Z,2.50
2018-08-24T08:39:24.297Z,2.10
2018-08-24T08:41:52.538Z,1.93
2018-08-24T08:44:20.743Z,2.40
2018-08-24T08:46:49.008Z,1.57
2018-08-24T08:49:17.308Z,2.20
2018-08-24T08:51:45.523Z,2.07
2018-08-24T08:54:13.692Z,4.33
2018-08-24T08:56:41.891Z,1.90
2018-08-24T08:59:10.145Z,2.00
2018-08-24T09:01:38.317Z,1.93
2018-08-24T09:04:06.552Z,1.50
2018-08-24T09:06:34.861Z,1.83
2018-08-24T09:09:03.984Z,1.77
2018-08-24T09:11:32.171Z,1.90
2018-08-24T09:14:00.376Z,2.03
2018-08-24T09:17:37.417Z,2.07
2018-08-24T09:20:11.076Z,2.33
2018-08-24T09:22:44.810Z,1.70
2018-08-24T09:25:18.512Z,2.60
2018-08-24T09:27:47.819Z,1.60
2018-08-24T09:30:16.000Z,2.47
2018-08-24T09:32:44.274Z,2.27
2018-08-24T09:35:12.456Z,2.37
2018-08-24T09:37:40.649Z,2.00
2018-08-24T09:40:09.071Z,3.57
2018-08-24T09:42:37.311Z,2.50
2018-08-24T09:45:05.746Z,2.73
2018-08-24T09:47:39.449Z,2.33
2018-08-24T09:50:13.136Z,2.60
2018-08-24T09:52:41.303Z,2.20
2018-08-24T09:55:09.512Z,1.90
2018-08-24T09:57:37.751Z,1.70
2018-08-24T10:00:06.296Z,1.90
2018-08-24T10:02:39.854Z,2.23
2018-08-24T10:05:13.433Z,2.10
2018-08-24T10:07:45.136Z,1.70
2018-08-24T10:10:13.344Z,2.27
2018-08-24T10:12:41.574Z,1.70
2018-08-24T10:15:10.018Z,2.10
2018-08-24T10:17:38.202Z,1.77
2018-08-24T10:20:06.828Z,2.27
2018-08-24T10:22:35.038Z,1.60
2018-08-24T10:25:03.305Z,1.50
2018-08-24T10:27:31.692Z,1.80
2018-08-24T10:29:59.894Z,2.00
2018-08-24T10:32:28.081Z,2.37
2018-08-24T10:34:56.307Z,1.70
2018-08-24T10:37:24.507Z,2.00
2018-08-24T10:39:52.704Z,1.63
2018-08-24T10:42:20.896Z,2.23
2018-08-24T10:44:49.097Z,3.07
2018-08-24T10:47:17.388Z,2.43
2018-08-24T10:49:45.560Z,1.50
2018-08-24T10:52:13.739Z,2.27
2018-08-24T10:54:41.976Z,1.40
2018-08-24T10:57:10.096Z,1.77
2018-08-24T10:59:38.289Z,1.63
2018-08-24T11:02:06.863Z,1.60
2018-08-24T11:04:34.946Z,1.57
2018-08-24T11:07:03.176Z,2.17
2018-08-24T11:09:31.324Z,2.60
2018-08-24T11:12:00.023Z,1.67
2018-08-24T11:14:28.201Z,1.83
2018-08-24T11:16:56.420Z,2.50
2018-08-24T11:19:24.579Z,1.67
2018-08-24T11:21:52.972Z,1.97
2018-08-24T11:24:21.216Z,2.50
2018-08-24T11:26:49.487Z,2.20
2018-08-24T11:29:17.667Z,2.20
2018-08-24T11:31:45.835Z,1.53
2018-08-24T11:34:14.036Z,2.03
2018-08-24T11:36:42.236Z,1.80
2018-08-24T11:39:10.444Z,1.90
2018-08-24T11:41:38.684Z,1.77
2018-08-24T11:44:06.825Z,1.30
2018-08-24T11:46:35.016Z,1.97
2018-08-24T11:49:03.185Z,2.00
2018-08-24T11:51:31.367Z,1.83
2018-08-24T11:53:59.862Z,1.50
2018-08-24T11:56:28.041Z,3.13
2018-08-24T11:59:02.651Z,1.90
2018-08-24T12:01:30.848Z,1.60
2018-08-24T12:03:59.072Z,1.40
2018-08-24T12:06:27.272Z,2.27
2018-08-24T12:08:55.460Z,1.43
2018-08-24T12:11:23.638Z,2.27
2018-08-24T12:13:51.883Z,1.20
2018-08-24T12:16:20.076Z,3.13
2018-08-24T12:18:48.337Z,1.90
2018-08-24T12:21:16.565Z,2.27
2018-08-24T12:23:44.724Z,2.20
2018-08-24T12:26:12.933Z,1.50
2018-08-24T12:28:41.132Z,1.80
2018-08-24T12:31:09.352Z,1.40
2018-08-24T12:33:37.539Z,2.00
2018-08-24T12:36:11.656Z,2.53
2018-08-24T12:38:39.828Z,1.50
2018-08-24T12:41:08.023Z,1.63
2018-08-24T12:43:36.263Z,1.27
2018-08-24T12:46:04.644Z,1.27
2018-08-24T12:48:32.832Z,1.30
2018-08-24T12:51:01.147Z,1.50
2018-08-24T12:53:29.350Z,1.93
2018-08-24T12:55:57.552Z,1.83
2018-08-24T12:58:25.744Z,2.87
2018-08-24T13:00:53.945Z,1.47
2018-08-24T13:03:22.121Z,1.43
2018-08-24T13:05:50.305Z,1.60
2018-08-24T13:08:18.508Z,4.03
2018-08-24T13:10:46.713Z,1.30
2018-08-24T13:13:14.924Z,1.63
2018-08-24T13:15:43.148Z,1.63
2018-08-24T13:18:11.335Z,2.10
2018-08-24T13:20:39.554Z,1.50
2018-08-24T13:23:07.767Z,2.10
2018-08-24T13:25:35.973Z,5.07
2018-08-24T13:28:04.189Z,2.60
2018-08-24T13:30:32.377Z,2.63
2018-08-24T13:33:00.710Z,2.40
2018-08-24T13:35:28.944Z,2.00
2018-08-24T13:37:57.125Z,2.27
2018-08-24T13:40:25.349Z,2.40
2018-08-24T13:42:53.557Z,1.73
2018-08-24T13:45:21.756Z,1.47
2018-08-24T13:47:50.034Z,1.77
2018-08-24T13:50:18.228Z,1.67
2018-08-24T13:52:46.429Z,1.60
2018-08-24T13:55:14.645Z,2.40
2018-08-24T13:57:42.875Z,1.97
2018-08-24T14:00:11.039Z,1.77
2018-08-24T14:02:39.241Z,2.00
2018-08-24T14:05:07.456Z,1.50
2018-08-24T14:07:35.844Z,1.63
2018-08-24T14:10:04.193Z,1.70
2018-08-24T14:12:32.591Z,2.03
2018-08-24T14:15:00.780Z,1.80
2018-08-24T14:17:28.951Z,1.30
2018-08-24T14:19:57.162Z,1.77
2018-08-24T14:22:26.264Z,1.93
2018-08-24T14:24:54.457Z,1.60
2018-08-24T14:27:22.804Z,1.53
2018-08-24T14:29:50.993Z,1.50
2018-08-24T14:32:19.188Z,4.27
2018-08-24T14:34:47.388Z,1.40
2018-08-24T14:37:15.596Z,1.83
2018-08-24T14:39:43.770Z,1.37
2018-08-24T14:42:11.965Z,2.73
2018-08-24T14:44:40.128Z,1.77
2018-08-24T14:47:08.328Z,1.87
2018-08-24T14:49:36.526Z,1.50
2018-08-24T14:52:04.756Z,2.07
2018-08-24T14:54:32.945Z,1.97
2018-08-24T14:57:01.165Z,1.70
2018-08-24T14:59:29.383Z,1.67
2018-08-24T15:01:57.556Z,2.23
2018-08-24T15:04:25.856Z,2.57
2018-08-24T15:06:54.061Z,2.03
2018-08-24T15:09:22.288Z,1.50
2018-08-24T15:11:50.456Z,1.93
2018-08-24T15:14:18.661Z,1.60
2018-08-24T15:16:46.846Z,1.80
2018-08-24T15:19:15.037Z,2.07
2018-08-24T15:21:43.220Z,1.60
2018-08-24T15:24:11.424Z,2.60
2018-08-24T15:26:39.629Z,1.93
2018-08-24T15:29:08.149Z,1.70
2018-08-24T15:31:36.411Z,1.70
2018-08-24T15:34:04.943Z,1.87
2018-08-24T15:36:33.188Z,1.10
2018-08-24T15:39:01.363Z,1.80
2018-08-24T15:41:29.572Z,1.27
2018-08-24T15:43:57.800Z,1.53
2018-08-24T15:46:26.009Z,2.60
2018-08-24T15:48:54.223Z,2.50
2018-08-24T15:51:23.016Z,1.70
2018-08-24T15:53:51.235Z,1.60
2018-08-24T15:56:19.420Z,2.20
2018-08-24T15:58:47.606Z,2.23
2018-08-24T16:01:15.824Z,2.33
2018-08-24T16:03:44.060Z,1.30
2018-08-24T16:06:12.256Z,2.70
2018-08-24T16:08:41.292Z,1.60
2018-08-24T16:11:09.472Z,1.20
2018-08-24T16:13:37.656Z,1.70
2018-08-24T16:16:06.075Z,2.60
2018-08-24T16:18:34.388Z,1.40
2018-08-24T16:21:02.688Z,1.77
2018-08-24T16:23:30.913Z,2.00
2018-08-24T16:25:59.207Z,1.87
2018-08-24T16:28:27.481Z,2.30
2018-08-24T16:30:55.808Z,2.07
2018-08-24T16:33:24.004Z,2.60
2018-08-24T16:35:52.217Z,1.97
2018-08-24T16:38:20.392Z,4.80
2018-08-24T16:40:48.644Z,2.43
2018-08-24T16:43:16.838Z,2.27
2018-08-24T16:45:45.125Z,1.50
2018-08-24T16:48:13.316Z,3.00
2018-08-24T16:50:41.616Z,2.20
2018-08-24T16:53:09.810Z,3.10
2018-08-24T16:55:38.096Z,2.37
2018-08-24T16:58:06.314Z,1.90
2018-08-24T17:00:34.468Z,2.87
2018-08-24T17:03:03.286Z,2.00
2018-08-24T17:05:31.504Z,2.40
2018-08-24T17:07:59.700Z,1.70
2018-08-24T17:10:30.140Z,3.00
2018-08-24T17:12:58.416Z,2.20
2018-08-24T17:15:26.649Z,1.60
2018-08-24T17:17:54.805Z,1.80
2018-08-24T17:20:23.033Z,2.70
2018-08-24T17:22:51.226Z,1.73
2018-08-24T17:25:19.455Z,2.20
2018-08-24T17:27:47.777Z,2.33
2018-08-24T17:30:15.992Z,2.13
2018-08-24T17:32:44.263Z,2.63
2018-08-24T17:35:12.866Z,3.00
2018-08-24T17:37:41.021Z,2.00
2018-08-24T17:40:09.355Z,2.10
2018-08-24T17:42:37.578Z,2.53
2018-08-24T17:45:05.979Z,2.10
2018-08-24T17:47:34.192Z,1.80
2018-08-24T17:50:02.403Z,1.77
2018-08-24T17:52:30.621Z,2.40
2018-08-24T17:54:58.859Z,2.57
2018-08-24T17:57:27.040Z,1.80
2018-08-24T17:59:55.225Z,1.53
2018-08-24T18:02:23.403Z,2.73
2018-08-24T18:04:51.679Z,1.80
2018-08-24T18:07:19.887Z,2.33
2018-08-24T18:09:48.071Z,2.00
2018-08-24T18:12:16.252Z,2.07
2018-08-24T18:14:44.540Z,1.80
2018-08-24T18:17:12.716Z,1.70
2018-08-24T18:19:40.891Z,1.43
2018-08-24T18:22:09.175Z,1.87
2018-08-24T18:24:37.368Z,1.63
2018-08-24T18:27:05.680Z,2.00
2018-08-24T18:29:33.932Z,2.13
2018-08-24T18:32:02.733Z,2.00
2018-08-24T18:34:30.993Z,2.40
2018-08-24T18:36:59.253Z,2.10
2018-08-24T18:39:27.451Z,2.50
2018-08-24T18:41:55.648Z,2.40
2018-08-24T18:44:23.836Z,2.43
2018-08-24T18:46:52.044Z,1.90
2018-08-24T18:49:20.244Z,3.17
2018-08-24T18:52:51.508Z,2.37
2018-08-24T18:55:19.765Z,3.80
2018-08-24T18:57:48.089Z,3.20
2018-08-24T19:00:16.228Z,2.70
2018-08-24T19:02:44.453Z,3.57
2018-08-24T19:05:12.754Z,3.53
2018-08-24T19:07:40.952Z,2.43
2018-08-24T19:10:09.256Z,2.40
2018-08-24T19:12:37.468Z,2.83
2018-08-24T19:15:05.769Z,2.60
2018-08-24T19:17:39.448Z,3.60
2018-08-24T19:20:13.208Z,1.93
2018-08-24T19:22:45.769Z,1.83
2018-08-24T19:25:14.049Z,2.50
2018-08-24T19:27:47.705Z,2.17
2018-08-24T19:30:47.739Z,3.60
2018-08-24T19:33:15.941Z,2.30
2018-08-24T19:35:44.244Z,1.93
2018-08-24T19:38:12.429Z,2.83
2018-08-24T19:40:46.062Z,1.93
2018-08-24T19:43:14.327Z,1.63
2018-08-24T19:45:42.630Z,1.43
2018-08-24T19:48:16.722Z,2.00
2018-08-24T19:50:45.013Z,1.57
2018-08-24T19:53:13.285Z,1.50
2018-08-24T19:55:41.577Z,2.63
2018-08-24T19:58:15.163Z,1.70
2018-08-24T20:00:43.358Z,1.90
2018-08-24T20:03:11.572Z,1.40
2018-08-24T20:05:39.804Z,1.50
2018-08-24T20:08:13.671Z,2.33
2018-08-24T20:10:41.897Z,2.00
2018-08-24T20:13:10.112Z,1.37
2018-08-24T20:15:43.850Z,1.60
2018-08-24T20:18:12.046Z,1.30
2018-08-24T20:20:40.259Z,2.20
2018-08-24T20:23:08.480Z,1.87
2018-08-24T20:25:36.722Z,1.60
2018-08-24T20:28:05.096Z,2.50
2018-08-24T20:30:34.311Z,1.40
2018-08-24T20:33:02.495Z,2.23
2018-08-24T20:35:30.762Z,2.20
2018-08-24T20:37:58.944Z,2.33
2018-08-24T20:40:27.203Z,2.90
2018-08-24T20:42:55.402Z,2.30
2018-08-24T20:45:23.665Z,2.30
2018-08-24T20:47:51.848Z,2.60
2018-08-24T20:50:20.103Z,2.40
2018-08-24T20:52:48.316Z,2.00
2018-08-24T20:55:16.574Z,2.60
2018-08-24T20:57:44.764Z,3.10
2018-08-24T21:00:12.960Z,2.70
2018-08-24T21:02:41.174Z,2.20
2018-08-24T21:05:09.461Z,2.60
2018-08-24T21:07:38.009Z,3.00
2018-08-24T21:10:06.252Z,2.00
2018-08-24T21:12:35.811Z,2.57
2018-08-24T21:15:04.578Z,2.63
2018-08-24T21:17:32.855Z,2.67
2018-08-24T21:20:01.950Z,2.40
2018-08-24T21:22:30.200Z,3.40
2018-08-24T21:24:58.438Z,3.43
2018-08-24T21:27:26.705Z,2.80
2018-08-24T21:29:54.916Z,2.00
2018-08-24T21:32:23.172Z,3.07
2018-08-24T21:34:51.663Z,2.07
2018-08-24T21:37:20.141Z,2.07
2018-08-24T21:39:48.324Z,2.20
2018-08-24T21:42:16.867Z,3.10
2018-08-24T21:44:45.112Z,1.80
2018-08-24T21:47:13.501Z,1.90
2018-08-24T21:49:41.688Z,2.80
2018-08-24T21:52:09.935Z,2.57
2018-08-24T21:54:38.243Z,2.43
2018-08-24T21:57:06.537Z,2.80
2018-08-24T21:59:34.728Z,1.90
2018-08-24T22:02:02.941Z,1.90
2018-08-24T22:04:31.163Z,2.93
2018-08-24T22:06:59.433Z,1.80
2018-08-24T22:09:27.682Z,2.30
2018-08-24T22:11:55.919Z,2.03
2018-08-24T22:14:24.080Z,2.67
2018-08-24T22:16:52.354Z,2.03
2018-08-24T22:19:20.529Z,1.87
2018-08-24T22:21:48.734Z,2.50
2018-08-24T22:24:16.971Z,2.17
2018-08-24T22:26:45.246Z,1.87
2018-08-24T22:29:13.427Z,1.87
2018-08-24T22:31:41.608Z,1.63
2018-08-24T22:34:09.828Z,1.60
2018-08-24T22:36:38.163Z,1.67
2018-08-24T22:39:07.588Z,1.97
2018-08-24T22:41:35.773Z,2.07
2018-08-24T22:44:04.010Z,1.47
2018-08-24T22:46:32.242Z,2.90
2018-08-24T22:49:00.408Z,2.20
2018-08-24T22:51:28.611Z,1.80
2018-08-24T22:53:56.791Z,1.80
2018-08-24T22:56:25.036Z,2.80
2018-08-24T22:58:53.216Z,1.43
2018-08-24T23:01:21.498Z,1.60
2018-08-24T23:03:49.728Z,1.37
2018-08-24T23:06:17.950Z,1.97
2018-08-24T23:08:46.244Z,1.63
2018-08-24T23:11:14.441Z,1.27
2018-08-24T23:13:42.656Z,2.00
2018-08-24T23:16:11.124Z,1.93
2018-08-24T23:18:39.305Z,1.63
2018-08-24T23:21:07.513Z,1.70
2018-08-24T23:23:35.733Z,1.90
2018-08-24T23:26:03.940Z,1.60
2018-08-24T23:28:32.125Z,2.60
2018-08-24T23:31:00.316Z,1.70
2018-08-24T23:33:28.568Z,1.77
2018-08-24T23:35:56.848Z,1.60
2018-08-24T23:38:25.140Z,2.33
2018-08-24T23:40:53.339Z,1.77
2018-08-24T23:43:21.737Z,1.83
2018-08-24T23:45:50.389Z,1.50
2018-08-24T23:48:18.599Z,1.40
2018-08-24T23:50:46.801Z,1.63
2018-08-24T23:53:14.963Z,1.90
2018-08-24T23:55:43.259Z,1.43
2018-08-24T23:58:11.459Z,1.43
